Time;durP1;ratioP1;P1;durP2;ratioP2;P2;SDS_P1;SDS_P2;PMS_P1;PMS_P2;Temp;Humidity;BMP_temperature;BMP_pressure;BME280_temperature;BME280_humidity;BME280_pressure;Samples;Min_cycle;Max_cycle;Signal;HPM_P1;HPM_P2
2021/11/19 00:00:43;;;;;;;14.02;5.80;;;;;;;10.74;100.00;102347.69;6156442;23;20028;-87
2021/11/19 00:03:10;;;;;;;11.38;5.38;;;;;;;10.74;100.00;102349.53;6132128;23;20013;-85
2021/11/19 00:05:36;;;;;;;12.63;5.47;;;;;;;10.68;100.00;102340.16;6131746;23;20036;-86
2021/11/19 00:08:03;;;;;;;12.82;6.00;;;;;;;10.66;100.00;102341.28;6131671;23;20379;-86
2021/11/19 00:10:29;;;;;;;13.40;5.88;;;;;;;10.73;100.00;102345.13;6131666;23;20024;-84
2021/11/19 00:12:55;;;;;;;18.98;8.98;;;;;;;10.68;100.00;102347.38;6130974;23;20086;-84
2021/11/19 00:15:21;;;;;;;11.88;5.65;;;;;;;10.67;100.00;102343.00;6155840;23;20417;-87
2021/11/19 00:17:47;;;;;;;10.63;5.47;;;;;;;10.62;100.00;102343.41;6156276;23;20009;-86
2021/11/19 00:20:16;;;;;;;11.00;4.10;;;;;;;10.57;100.00;102341.13;6156582;23;20413;-86
2021/11/19 00:22:42;;;;;;;10.30;5.00;;;;;;;10.68;100.00;102355.47;6154209;23;20326;-86
2021/11/19 00:25:08;;;;;;;10.05;4.47;;;;;;;10.66;100.00;102352.91;6153833;23;20016;-86
2021/11/19 00:27:34;;;;;;;11.52;4.47;;;;;;;10.65;100.00;102351.19;6153520;23;20004;-86
2021/11/19 00:30:03;;;;;;;11.95;5.60;;;;;;;10.67;100.00;102357.31;6154706;23;20016;-86
2021/11/19 00:32:28;;;;;;;9.25;4.22;;;;;;;10.59;100.00;102348.22;6105826;23;20009;-85
2021/11/19 00:34:54;;;;;;;11.80;4.97;;;;;;;10.66;100.00;102355.59;6154821;23;20315;-85
2021/11/19 00:37:21;;;;;;;9.75;4.45;;;;;;;10.59;100.00;102349.06;6131342;23;20001;-84
2021/11/19 00:39:47;;;;;;;10.88;5.03;;;;;;;10.65;100.00;102350.34;6131330;23;20009;-85
2021/11/19 00:42:13;;;;;;;11.93;3.65;;;;;;;10.60;100.00;102341.84;6132928;23;20012;-86
2021/11/19 00:44:41;;;;;;;13.02;5.70;;;;;;;10.64;100.00;102348.63;6183460;23;20001;-86
2021/11/19 00:47:08;;;;;;;15.10;5.65;;;;;;;10.63;100.00;102345.09;6133419;23;20044;-85
2021/11/19 00:49:36;;;;;;;10.77;4.72;;;;;;;10.64;100.00;102341.44;6156395;23;20005;-84
2021/11/19 00:52:04;;;;;;;9.98;4.68;;;;;;;10.57;100.00;102329.53;6131736;23;20059;-85
2021/11/19 00:54:29;;;;;;;12.85;5.70;;;;;;;10.64;100.00;102341.44;6156540;23;20009;-86
2021/11/19 00:57:00;;;;;;;12.40;4.70;;;;;;;10.64;100.00;102341.44;6183453;23;20005;-86
2021/11/19 00:59:28;;;;;;;9.90;4.60;;;;;;;10.64;100.00;102337.88;6157336;23;20491;-84
2021/11/19 01:02:04;;;;;;;12.27;5.25;;;;;;;10.64;100.00;102336.06;6134519;23;20486;-85
2021/11/19 01:04:30;;;;;;;8.40;3.63;;;;;;;10.61;100.00;102335.47;6107417;23;20055;-86
2021/11/19 01:06:56;;;;;;;10.18;4.75;;;;;;;10.64;100.00;102333.38;6131466;23;20029;-85
2021/11/19 01:09:24;;;;;;;9.10;3.47;;;;;;;10.62;100.00;102327.28;6157142;23;20001;-86
2021/11/19 01:11:52;;;;;;;8.77;3.55;;;;;;;10.59;100.00;102326.72;6133067;23;20009;-85
2021/11/19 01:14:22;;;;;;;9.20;4.00;;;;;;;10.61;100.00;102335.47;6158850;23;20004;-84
2021/11/19 01:16:59;;;;;;;9.65;5.03;;;;;;;10.54;100.00;102322.56;6110616;23;20436;-85
2021/11/19 01:19:29;;;;;;;11.02;4.38;;;;;;;10.60;100.00;102323.88;6133881;23;20421;-88
2021/11/19 01:21:59;;;;;;;10.65;5.68;;;;;;;10.60;100.00;102318.47;6134455;23;20571;-85
2021/11/19 01:24:26;;;;;;;12.02;5.35;;;;;;;10.58;100.00;102325.84;6159158;23;20087;-86
2021/11/19 01:26:52;;;;;;;9.00;3.90;;;;;;;10.58;100.00;102323.16;6134141;23;20012;-90
2021/11/19 01:29:18;;;;;;;9.55;4.28;;;;;;;10.57;100.00;102326.84;6109136;23;20016;-86
2021/11/19 01:31:50;;;;;;;13.00;5.03;;;;;;;10.56;100.00;102326.00;6157830;23;20040;-85
2021/11/19 01:34:16;;;;;;;11.18;5.03;;;;;;;10.59;100.00;102324.03;6133380;23;20020;-85
2021/11/19 01:36:42;;;;;;;11.93;4.90;;;;;;;10.57;100.00;102325.00;6133122;23;20083;-90
2021/11/19 01:39:12;;;;;;;10.80;4.65;;;;;;;10.56;100.00;102325.16;6133410;23;20421;-84
2021/11/19 01:41:43;;;;;;;11.18;5.30;;;;;;;10.60;100.00;102325.72;6108973;23;20013;-86
2021/11/19 01:44:19;;;;;;;8.30;4.45;;;;;;;10.59;100.00;102326.72;6157806;23;20008;-87
2021/11/19 01:46:47;;;;;;;11.63;4.97;;;;;;;10.59;100.00;102318.63;6157406;23;20084;-91
2021/11/19 01:49:13;;;;;;;11.82;5.03;;;;;;;10.56;100.00;102322.47;6157532;23;20039;-86
2021/11/19 01:51:59;;;;;;;14.40;6.35;;;;;;;10.56;100.00;102309.00;6157719;23;20005;-87
2021/11/19 01:54:35;;;;;;;10.38;4.95;;;;;;;10.60;100.00;102315.78;6133319;23;20066;-85
2021/11/19 01:57:07;;;;;;;10.80;4.63;;;;;;;10.59;100.00;102314.09;6108825;23;20005;-86
2021/11/19 01:59:49;;;;;;;9.65;4.20;;;;;;;10.56;100.00;102312.53;6108661;23;20352;-87
2021/11/19 02:02:21;;;;;;;8.00;3.55;;;;;;;10.59;100.00;102315.94;6133330;23;20028;-86
2021/11/19 02:05:00;;;;;;;7.55;3.35;;;;;;;10.59;100.00;102321.34;6183992;23;20009;-85
2021/11/19 02:07:37;;;;;;;7.93;3.17;;;;;;;10.56;100.00;102312.53;6107909;23;20009;-87
2021/11/19 02:10:24;;;;;;;8.70;3.40;;;;;;;10.57;100.00;102318.75;6108520;23;20001;-86
2021/11/19 02:13:04;;;;;;;8.77;3.13;;;;;;;10.53;100.00;102306.56;6183646;23;20104;-87
2021/11/19 02:16:02;;;;;;;7.13;3.10;;;;;;;10.57;100.00;102321.47;6184518;23;20012;-86
2021/11/19 02:18:31;;;;;;;5.15;2.58;;;;;;;10.56;100.00;102315.22;6156647;23;20449;-84
2021/11/19 02:21:05;;;;;;;6.20;2.78;;;;;;;10.54;100.00;102310.97;6132038;23;20015;-84
2021/11/19 02:23:37;;;;;;;7.45;2.65;;;;;;;10.52;100.00;102310.25;6156752;23;20012;-85
2021/11/19 02:26:07;;;;;;;7.82;3.10;;;;;;;10.54;100.00;102319.88;6108485;23;20004;-89
2021/11/19 02:28:35;;;;;;;10.00;4.30;;;;;;;10.56;100.00;102319.75;6157268;23;20001;-88
2021/11/19 02:31:08;;;;;;;8.73;3.63;;;;;;;10.54;100.00;102314.50;6108071;23;20009;-85
2021/11/19 02:33:34;;;;;;;9.93;4.03;;;;;;;10.51;100.00;102309.41;6156902;23;20076;-88
2021/11/19 02:36:03;;;;;;;10.48;3.70;;;;;;;10.54;100.00;102314.50;6156901;23;20039;-89
2021/11/19 02:38:41;;;;;;;7.50;3.15;;;;;;;10.52;100.00;102311.09;6156879;23;20040;-85
2021/11/19 02:41:08;;;;;;;9.27;3.83;;;;;;;10.53;100.00;102309.25;6108325;23;20005;-86
2021/11/19 02:43:43;;;;;;;9.27;3.97;;;;;;;10.49;100.00;102300.63;6157089;23;20067;-89
2021/11/19 02:46:22;;;;;;;11.60;4.50;;;;;;;10.50;100.00;102302.31;6132261;23;20059;-85
2021/11/19 02:48:49;;;;;;;11.27;3.80;;;;;;;10.43;100.00;102289.59;6157100;23;20001;-86
2021/11/19 02:51:15;;;;;;;8.95;3.40;;;;;;;10.49;100.00;102297.94;6156704;23;20032;-85
2021/11/19 02:53:44;;;;;;;10.73;4.60;;;;;;;10.44;100.00;102289.44;6132416;23;20005;-86
2021/11/19 02:56:10;;;;;;;10.55;4.10;;;;;;;10.51;100.00;102301.34;6107416;23;20012;-87
2021/11/19 02:58:39;;;;;;;8.05;3.50;;;;;;;10.50;100.00;102288.88;6156882;23;20008;-86
2021/11/19 03:01:16;;;;;;;8.45;4.57;;;;;;;10.44;100.00;102275.97;6156795;23;20084;-89
2021/11/19 03:03:47;;;;;;;8.90;3.13;;;;;;;10.49;100.00;102286.34;6131998;23;20040;-90
2021/11/19 03:06:13;;;;;;;9.35;2.85;;;;;;;10.49;100.00;102300.63;6156494;23;20039;-84
2021/11/19 03:08:39;;;;;;;7.43;2.40;;;;;;;10.49;100.00;102299.78;6130589;23;20009;-86
2021/11/19 03:11:06;;;;;;;7.57;2.55;;;;;;;10.47;100.00;102296.38;6157601;23;20001;-87
2021/11/19 03:13:33;;;;;;;5.38;2.55;;;;;;;10.46;100.00;102295.53;6155970;23;20088;-89
2021/11/19 03:15:59;;;;;;;8.15;3.35;;;;;;;10.44;100.00;102291.28;6132106;23;20012;-86
2021/11/19 03:18:27;;;;;;;4.78;2.25;;;;;;;10.47;100.00;102291.00;6131798;23;20009;-87
2021/11/19 03:20:56;;;;;;;5.57;1.80;;;;;;;10.45;100.00;102298.34;6107898;23;20012;-88
2021/11/19 03:23:23;;;;;;;3.60;1.75;;;;;;;10.44;100.00;102302.88;6131979;23;20008;-85
2021/11/19 03:25:49;;;;;;;4.95;2.35;;;;;;;10.43;100.00;102303.88;6107711;23;20017;-84
2021/11/19 03:28:17;;;;;;;5.28;2.42;;;;;;;10.41;100.00;102295.09;6107469;23;20005;-84
2021/11/19 03:30:45;;;;;;;6.03;2.55;;;;;;;10.43;100.00;102295.81;6131771;23;20021;-86
2021/11/19 03:33:13;;;;;;;5.43;2.67;;;;;;;10.42;100.00;102299.47;6155586;23;20005;-88
2021/11/19 03:35:40;;;;;;;9.23;3.22;;;;;;;10.40;100.00;102296.09;6131897;23;20306;-86
2021/11/19 03:38:06;;;;;;;6.55;3.00;;;;;;;10.42;100.00;102291.41;6107470;23;20007;-86
2021/11/19 03:40:35;;;;;;;5.80;2.70;;;;;;;10.42;100.00;102298.63;6156649;23;20001;-86
2021/11/19 03:43:05;;;;;;;6.38;2.88;;;;;;;10.40;100.00;102295.22;6156345;23;20028;-85
2021/11/19 03:45:36;;;;;;;11.48;3.85;;;;;;;10.36;100.00;102285.72;6104657;23;20017;-84
2021/11/19 03:48:03;;;;;;;7.07;3.83;;;;;;;10.42;100.00;102294.09;6131074;23;20041;-84
2021/11/19 03:50:40;;;;;;;6.47;3.00;;;;;;;10.42;100.00;102294.09;6132227;23;20449;-86
2021/11/19 03:53:07;;;;;;;6.28;2.80;;;;;;;10.42;100.00;102293.25;6156702;23;20369;-85
2021/11/19 03:55:35;;;;;;;7.22;2.80;;;;;;;10.40;100.00;102295.22;6131527;23;20009;-83
2021/11/19 03:58:01;;;;;;;5.65;2.28;;;;;;;10.40;100.00;102298.78;6130193;23;20001;-84
2021/11/19 04:00:40;;;;;;;7.22;3.08;;;;;;;10.39;100.00;102296.22;6131471;23;20017;-84
2021/11/19 04:03:07;;;;;;;4.88;2.30;;;;;;;10.34;100.00;102288.53;6156118;23;20001;-87
2021/11/19 04:05:41;;;;;;;4.07;2.00;;;;;;;10.36;100.00;102288.41;6106283;23;20013;-84
2021/11/19 04:08:06;;;;;;;;;;;;;;;10.34;100.00;102299.28;6131757;23;20016;-85
2021/11/19 04:10:33;;;;;;;4.88;2.33;;;;;;;10.28;100.00;102286.41;6155547;23;19904;-84
2021/11/19 04:12:59;;;;;;;8.15;2.58;;;;;;;10.28;100.00;102289.94;6106808;23;20440;-85
2021/11/19 04:15:33;;;;;;;4.25;1.40;;;;;;;10.28;100.00;102297.16;6180677;23;20100;-85
2021/11/19 04:18:00;;;;;;;4.00;1.65;;;;;;;10.27;100.00;102292.75;6131407;23;20040;-85
2021/11/19 04:20:29;;;;;;;3.85;1.90;;;;;;;10.26;100.00;102299.09;6131050;23;20128;-84
2021/11/19 04:22:58;;;;;;;2.88;1.58;;;;;;;10.25;100.00;102295.56;6107125;23;20084;-87
2021/11/19 04:25:42;;;;;;;3.53;1.67;;;;;;;10.20;100.00;102278.16;6131268;23;20029;-84
2021/11/19 04:28:08;;;;;;;2.30;1.40;;;;;;;10.22;100.00;102287.78;6104268;23;20012;-84
2021/11/19 04:30:37;;;;;;;4.28;1.58;;;;;;;10.18;100.00;102286.34;6106357;23;20009;-84
2021/11/19 04:33:02;;;;;;;2.83;1.40;;;;;;;10.08;100.00;102280.06;6130951;23;20064;-85
2021/11/19 04:35:30;;;;;;;1.88;1.17;;;;;;;10.12;100.00;102286.88;6130943;23;20449;-84
2021/11/19 04:37:57;;;;;;;2.53;1.42;;;;;;;10.09;100.00;102293.38;6155785;23;20298;-86
2021/11/19 04:40:23;;;;;;;1.95;0.90;;;;;;;10.06;100.00;102285.59;6107216;23;20005;-84
2021/11/19 04:42:49;;;;;;;4.75;1.33;;;;;;;9.96;100.00;102268.56;6131211;23;20010;-85
2021/11/19 04:45:19;;;;;;;1.42;0.82;;;;;;;10.00;100.00;102280.78;6132546;23;19997;-86
2021/11/19 04:47:45;;;;;;;1.85;1.10;;;;;;;9.94;100.00;102269.69;6158545;23;20092;-84
2021/11/19 04:50:12;;;;;;;3.90;0.90;;;;;;;10.00;100.00;102283.47;6109685;23;20036;-85
2021/11/19 04:52:38;;;;;;;2.60;1.00;;;;;;;10.06;100.00;102293.66;6159060;23;20001;-84
2021/11/19 04:55:06;;;;;;;2.08;1.15;;;;;;;10.06;100.00;102292.81;6110306;23;20009;-84
2021/11/19 04:57:32;;;;;;;5.65;1.30;;;;;;;10.06;100.00;102296.34;6134586;23;20318;-87
2021/11/19 04:59:58;;;;;;;2.08;1.00;;;;;;;10.06;100.00;102296.34;6134568;23;20008;-85
2021/11/19 05:02:23;;;;;;;1.88;0.95;;;;;;;10.04;100.00;102287.56;6185237;23;20031;-84
2021/11/19 05:04:49;;;;;;;1.25;0.90;;;;;;;10.09;100.00;102305.97;6185355;23;20012;-84
2021/11/19 05:07:18;;;;;;;2.22;1.15;;;;;;;10.08;100.00;102296.19;6159698;23;20009;-85
2021/11/19 05:09:44;;;;;;;1.73;0.95;;;;;;;10.05;100.00;102294.63;6159185;23;20122;-84
2021/11/19 05:12:20;;;;;;;1.35;0.88;;;;;;;10.08;100.00;102297.06;6158979;23;20422;-84
2021/11/19 05:14:49;;;;;;;3.00;1.00;;;;;;;10.06;100.00;102299.03;6134177;23;20020;-85
2021/11/19 05:17:14;;;;;;;3.03;1.17;;;;;;;10.06;100.00;102295.50;6158848;23;20533;-85
2021/11/19 05:19:40;;;;;;;2.80;0.93;;;;;;;10.02;100.00;102292.22;6134634;23;20034;-84
2021/11/19 05:22:06;;;;;;;2.15;1.25;;;;;;;10.03;100.00;102304.69;6134413;23;20009;-86
2021/11/19 05:24:32;;;;;;;2.53;1.30;;;;;;;10.02;100.00;102296.75;6110620;23;20012;-85
2021/11/19 05:26:58;;;;;;;3.03;1.10;;;;;;;10.00;100.00;102299.59;6134404;23;20008;-84
2021/11/19 05:29:24;;;;;;;2.78;1.30;;;;;;;10.00;100.00;102293.31;6158759;23;20034;-84
2021/11/19 05:31:51;;;;;;;2.53;1.15;;;;;;;10.01;100.00;102305.81;6133960;23;20001;-88
2021/11/19 05:34:17;;;;;;;2.20;1.48;;;;;;;10.00;100.00;102298.69;6110241;23;20032;-84
2021/11/19 05:36:43;;;;;;;3.35;1.10;;;;;;;10.01;100.00;102301.28;6134224;23;20011;-84
2021/11/19 05:39:09;;;;;;;1.75;0.80;;;;;;;9.93;100.00;102282.28;6158737;23;20005;-85
2021/11/19 05:41:35;;;;;;;1.60;0.98;;;;;;;9.87;100.00;102277.41;6134011;23;20008;-85
2021/11/19 05:44:01;;;;;;;2.03;1.10;;;;;;;9.99;100.00;102297.84;6109569;23;20009;-84
2021/11/19 05:46:28;;;;;;;1.50;0.98;;;;;;;9.95;100.00;102290.19;6134602;23;20102;-84
2021/11/19 05:48:57;;;;;;;1.80;1.17;;;;;;;9.94;100.00;102299.25;6134262;23;20099;-85
2021/11/19 05:51:24;;;;;;;1.90;0.90;;;;;;;9.85;100.00;102287.47;6133574;23;20019;-85
2021/11/19 05:53:50;;;;;;;3.05;1.30;;;;;;;9.91;100.00;102295.00;6158485;23;20009;-88
2021/11/19 05:56:16;;;;;;;1.48;0.90;;;;;;;9.92;100.00;102299.38;6157801;23;20005;-85
2021/11/19 05:58:42;;;;;;;2.13;0.90;;;;;;;9.91;100.00;102293.16;6156858;23;20036;-85
2021/11/19 06:01:13;;;;;;;1.30;0.75;;;;;;;9.92;100.00;102299.38;6157841;23;20008;-84
2021/11/19 06:03:40;;;;;;;1.58;0.95;;;;;;;9.88;100.00;102296.09;6132699;23;20013;-85
2021/11/19 06:06:09;;;;;;;1.52;0.70;;;;;;;9.92;100.00;102312.81;6133062;23;20012;-84
2021/11/19 06:08:37;;;;;;;1.77;0.80;;;;;;;9.91;100.00;102311.13;6158175;23;20455;-84
2021/11/19 06:11:06;;;;;;;1.92;0.60;;;;;;;9.89;100.00;102308.53;6108216;23;20009;-83
2021/11/19 06:13:36;;;;;;;2.35;0.80;;;;;;;9.87;100.00;102307.84;6132800;23;20005;-86
2021/11/19 06:16:08;;;;;;;1.52;0.80;;;;;;;9.89;100.00;102313.06;6157033;23;20001;-84
2021/11/19 06:18:37;;;;;;;1.10;0.65;;;;;;;9.89;100.00;102321.97;6156637;23;20009;-85
2021/11/19 06:21:10;;;;;;;2.38;0.60;;;;;;;9.85;100.00;102309.81;6132272;23;20306;-85
2021/11/19 06:23:43;;;;;;;0.60;0.60;;;;;;;9.87;100.00;102320.41;6130528;23;20013;-85
2021/11/19 06:26:11;;;;;;;0.70;0.50;;;;;;;9.87;100.00;102321.28;6130878;23;20444;-86
2021/11/19 06:28:41;;;;;;;0.80;0.60;;;;;;;9.85;100.00;102314.34;6107821;23;20001;-85
2021/11/19 06:31:11;;;;;;;1.77;0.57;;;;;;;9.85;100.00;102320.56;6132435;23;20009;-84
2021/11/19 06:33:37;;;;;;;0.55;0.45;;;;;;;9.86;100.00;102318.72;6107927;23;20088;-85
2021/11/19 06:36:04;;;;;;;0.57;0.47;;;;;;;9.87;100.00;102320.41;6157059;23;20005;-84
2021/11/19 06:38:30;;;;;;;2.88;1.55;;;;;;;9.86;100.00;102303.44;6156992;23;20075;-85
2021/11/19 06:40:56;;;;;;;3.97;0.75;;;;;;;9.85;100.00;102315.19;6181763;23;20369;-85
2021/11/19 06:43:22;;;;;;;0.60;0.60;;;;;;;9.86;100.00;102318.72;6132348;23;20064;-85
2021/11/19 06:45:47;;;;;;;2.28;0.57;;;;;;;9.84;100.00;102312.63;6157168;23;20316;-84
2021/11/19 06:48:13;;;;;;;2.30;0.50;;;;;;;9.82;100.00;102311.94;6107773;23;20055;-84
2021/11/19 06:50:42;;;;;;;2.70;0.98;;;;;;;9.80;100.00;102313.88;6156895;23;20017;-85
2021/11/19 06:53:27;;;;;;;0.50;0.50;;;;;;;9.80;100.00;102320.09;6132659;23;20016;-84
2021/11/19 06:55:52;;;;;;;2.17;0.80;;;;;;;9.73;100.00;102310.03;6157480;23;19997;-84
2021/11/19 06:58:18;;;;;;;2.13;0.52;;;;;;;9.82;100.00;102320.84;6132096;23;20059;-84
2021/11/19 07:00:45;;;;;;;0.50;0.50;;;;;;;9.72;100.00;102306.50;6132571;23;20083;-85
2021/11/19 07:03:12;;;;;;;2.10;0.70;;;;;;;9.76;100.00;102307.91;6131950;23;20018;-84
2021/11/19 07:05:38;;;;;;;4.15;0.80;;;;;;;9.81;100.00;102321.78;6132212;23;20005;-84
2021/11/19 07:08:07;;;;;;;0.85;0.85;;;;;;;9.75;100.00;102311.59;6155843;23;20009;-84
2021/11/19 07:10:33;;;;;;;1.27;0.50;;;;;;;9.75;100.00;102316.13;6155791;23;20024;-85
2021/11/19 07:13:02;;;;;;;0.93;0.60;;;;;;;9.78;100.00;102321.22;6131955;23;20423;-86
2021/11/19 07:15:28;;;;;;;1.63;0.50;;;;;;;9.82;100.00;102333.41;6132349;23;20021;-85
2021/11/19 07:17:54;;;;;;;0.93;0.60;;;;;;;9.80;100.00;102330.00;6131533;23;20005;-85
2021/11/19 07:20:23;;;;;;;0.65;0.65;;;;;;;9.86;100.00;102334.84;6156148;23;20314;-86
2021/11/19 07:22:48;;;;;;;2.80;1.58;;;;;;;9.79;100.00;102317.53;6108057;23;20448;-85
2021/11/19 07:25:19;;;;;;;6.72;2.35;;;;;;;9.79;100.00;102323.78;6132871;23;20005;-89
2021/11/19 07:27:47;;;;;;;1.20;0.70;;;;;;;9.80;100.00;102330.00;6132855;23;20008;-90
2021/11/19 07:30:16;;;;;;;1.50;0.80;;;;;;;9.77;100.00;102324.91;6155718;23;20001;-85
2021/11/19 07:32:42;;;;;;;1.45;0.90;;;;;;;9.83;100.00;102337.81;6156264;23;20421;-84
2021/11/19 07:35:11;;;;;;;1.33;1.00;;;;;;;9.83;100.00;102332.44;6156165;23;20036;-87
2021/11/19 07:37:41;;;;;;;1.30;1.00;;;;;;;9.77;100.00;102328.44;6131378;23;20041;-85
2021/11/19 07:40:08;;;;;;;2.35;0.90;;;;;;;9.77;100.00;102331.13;6131698;23;20005;-87
2021/11/19 07:42:37;;;;;;;0.93;0.63;;;;;;;9.80;100.00;102330.00;6108009;23;20028;-84
2021/11/19 07:45:04;;;;;;;1.23;1.13;;;;;;;9.81;100.00;102337.91;6156753;23;20009;-84
2021/11/19 07:47:30;;;;;;;0.98;0.65;;;;;;;9.80;100.00;102333.53;6157547;23;20005;-84
2021/11/19 07:49:55;;;;;;;1.40;0.70;;;;;;;9.80;100.00;102338.06;6132114;23;20001;-85
2021/11/19 07:52:21;;;;;;;1.02;0.70;;;;;;;9.78;100.00;102340.88;6132874;23;20020;-89
2021/11/19 07:54:47;;;;;;;3.03;1.00;;;;;;;9.79;100.00;102339.03;6156562;23;20001;-85
2021/11/19 07:57:16;;;;;;;1.98;0.80;;;;;;;9.77;100.00;102335.66;6156938;23;20001;-88
2021/11/19 07:59:42;;;;;;;1.02;0.73;;;;;;;9.77;100.00;102341.88;6156548;23;20009;-89
2021/11/19 08:02:07;;;;;;;2.20;0.90;;;;;;;9.77;100.00;102341.03;6156523;23;20080;-83
2021/11/19 08:04:36;;;;;;;1.27;1.02;;;;;;;9.66;100.00;102324.00;6182840;23;20079;-84
2021/11/19 08:07:03;;;;;;;2.60;1.10;;;;;;;9.77;100.00;102349.94;6153924;23;20001;-87
2021/11/19 08:09:44;;;;;;;1.98;1.08;;;;;;;9.72;100.00;102337.88;6105828;23;20336;-85
2021/11/19 08:12:09;;;;;;;4.28;1.58;;;;;;;9.69;100.00;102337.16;6106619;23;20019;-83
2021/11/19 08:14:35;;;;;;;3.88;1.27;;;;;;;9.74;100.00;102346.63;6180290;23;20005;-84
2021/11/19 08:17:37;;;;;;;4.32;1.23;;;;;;;9.78;100.00;102348.94;6131135;23;20425;-86
2021/11/19 08:20:06;;;;;;;2.13;1.00;;;;;;;9.78;100.00;102358.84;6132276;23;20393;-87
2021/11/19 08:22:33;;;;;;;1.58;1.00;;;;;;;9.78;100.00;102354.31;6130721;23;20074;-85
2021/11/19 08:24:59;;;;;;;4.20;0.90;;;;;;;9.74;100.00;102346.63;6155837;23;20017;-84
2021/11/19 08:28:06;;;;;;;9.52;2.70;;;;;;;9.68;100.00;102332.78;6107137;23;20117;-85
2021/11/19 08:30:36;;;;;;;1.17;0.82;;;;;;;9.74;100.00;102343.94;6162219;23;20032;-84
2021/11/19 08:33:05;;;;;;;1.52;0.90;;;;;;;9.74;100.00;102342.13;6130794;23;20361;-86
2021/11/19 08:35:32;;;;;;;6.15;1.40;;;;;;;9.80;100.00;102356.88;6131863;23;20016;-85
2021/11/19 08:37:58;;;;;;;1.85;1.05;;;;;;;9.73;100.00;102339.56;6106718;23;20521;-88
2021/11/19 08:40:25;;;;;;;2.83;1.13;;;;;;;9.78;100.00;102348.94;6130549;23;20036;-87
2021/11/19 08:42:51;;;;;;;3.00;1.35;;;;;;;9.77;100.00;102346.41;6155690;23;20012;-86
2021/11/19 08:45:19;;;;;;;12.43;2.08;;;;;;;9.72;100.00;102337.88;6155812;23;20001;-84
2021/11/19 08:47:52;;;;;;;2.25;1.15;;;;;;;9.78;100.00;102346.25;6156943;23;20005;-84
2021/11/19 08:50:21;;;;;;;4.60;2.30;;;;;;;9.80;100.00;102346.13;6106874;23;20009;-88
2021/11/19 08:52:46;;;;;;;4.68;1.90;;;;;;;9.85;100.00;102354.63;6107090;23;20441;-85
2021/11/19 08:55:14;;;;;;;2.20;1.38;;;;;;;9.81;100.00;102343.28;6130568;23;20084;-85
2021/11/19 08:57:40;;;;;;;7.60;3.33;;;;;;;9.93;100.00;102354.84;6154488;23;20005;-89
2021/11/19 09:00:13;;;;;;;20.73;7.00;;;;;;;9.96;100.00;102365.31;6155668;23;20079;-86
2021/11/19 09:02:39;;;;;;;6.60;3.20;;;;;;;9.97;100.00;102364.31;6132281;23;20448;-89
2021/11/19 09:05:06;;;;;;;4.15;2.28;;;;;;;10.00;100.00;102358.69;6107240;23;20005;-88
2021/11/19 09:07:34;;;;;;;2.47;1.30;;;;;;;10.00;100.00;102361.38;6107220;23;20001;-89
2021/11/19 09:10:05;;;;;;;4.15;1.27;;;;;;;9.92;100.00;102345.03;6106900;23;20088;-85
2021/11/19 09:12:31;;;;;;;3.42;1.33;;;;;;;10.01;100.00;102364.91;6154512;23;20005;-88
2021/11/19 09:15:00;;;;;;;5.25;2.00;;;;;;;10.04;100.00;102364.66;6130002;23;20012;-87
2021/11/19 09:17:28;;;;;;;2.90;1.80;;;;;;;10.07;100.00;102367.91;6155185;23;20476;-90
2021/11/19 09:19:58;;;;;;;3.65;2.40;;;;;;;10.10;100.00;102364.09;6156003;23;20054;-85
2021/11/19 09:23:01;;;;;;;3.08;1.42;;;;;;;10.09;100.00;102363.25;6106532;23;20036;-88
2021/11/19 09:25:27;;;;;;;5.57;2.65;;;;;;;10.06;100.00;102360.84;6182645;23;20009;-84
2021/11/19 09:27:52;;;;;;;5.13;2.17;;;;;;;10.11;100.00;102368.53;6106236;23;20103;-85
2021/11/19 09:30:25;;;;;;;5.53;2.50;;;;;;;10.08;100.00;102366.06;6131735;23;20087;-84
2021/11/19 09:32:52;;;;;;;5.47;2.65;;;;;;;10.09;100.00;102374.00;6132958;23;20088;-87
2021/11/19 09:35:20;;;;;;;3.75;1.50;;;;;;;10.00;100.00;102360.50;6133256;23;20091;-84
2021/11/19 09:37:48;;;;;;;2.00;0.85;;;;;;;10.03;100.00;102379.94;6108694;23;20421;-85
2021/11/19 09:40:15;;;;;;;3.33;1.30;;;;;;;10.02;100.00;102375.50;6110118;23;20001;-90
2021/11/19 09:42:53;;;;;;;3.40;1.10;;;;;;;10.04;100.00;102380.78;6157712;23;20568;-85
2021/11/19 09:45:43;;;;;;;1.92;1.20;;;;;;;10.04;100.00;102375.41;6158308;23;20001;-86
2021/11/19 09:48:41;;;;;;;4.30;2.10;;;;;;;10.10;100.00;102385.59;6133828;23;20080;-86
2021/11/19 09:51:28;;;;;;;2.70;1.73;;;;;;;10.18;100.00;102387.63;6133551;23;20012;-85
2021/11/19 09:54:32;;;;;;;2.33;1.10;;;;;;;10.23;100.00;102385.41;6182713;23;20013;-84
2021/11/19 09:57:38;;;;;;;4.10;2.58;;;;;;;10.28;100.00;102385.88;6156639;23;19997;-86
2021/11/19 10:00:31;;;;;;;2.97;2.03;;;;;;;10.42;100.00;102390.88;6112155;23;20039;-88
2021/11/19 10:03:15;;;;;;;3.78;2.05;;;;;;;10.52;100.00;102399.84;6156987;23;20005;-87
2021/11/19 10:05:52;;;;;;;3.03;1.30;;;;;;;10.57;100.00;102394.94;6157932;23;20017;-87
2021/11/19 10:08:41;;;;;;;2.47;1.40;;;;;;;10.65;100.00;102396.94;6110562;23;20005;-85
2021/11/19 10:11:15;;;;;;;4.78;3.90;;;;;;;10.66;100.00;102392.41;6157911;23;20031;-85
2021/11/19 10:14:03;;;;;;;3.00;1.45;;;;;;;10.66;100.00;102390.56;6108647;23;20012;-85
2021/11/19 10:16:40;;;;;;;3.00;2.13;;;;;;;10.60;100.00;102387.56;6109092;23;20009;-88
2021/11/19 10:19:29;;;;;;;3.75;1.45;;;;;;;10.55;100.00;102394.19;6184008;23;20127;-85
2021/11/19 10:22:01;;;;;;;3.95;2.47;;;;;;;10.50;100.00;102393.75;6133024;23;20437;-85
2021/11/19 10:24:51;;;;;;;2.57;1.67;;;;;;;10.57;100.00;102404.84;6133363;23;20009;-86
2021/11/19 10:27:28;;;;;;;5.60;2.70;;;;;;;10.60;100.00;102401.03;6133159;23;20219;-85
2021/11/19 10:30:35;;;;;;;3.00;1.63;;;;;;;10.57;100.00;102394.94;6133028;23;20012;-84
2021/11/19 10:33:14;;;;;;;3.85;1.90;;;;;;;10.61;100.00;102397.34;6183427;23;20029;-87
2021/11/19 10:35:50;;;;;;;4.47;1.70;;;;;;;10.56;100.00;102398.63;6108846;23;20016;-87
2021/11/19 10:39:01;;;;;;;4.72;2.13;;;;;;;10.48;100.00;102405.66;6133400;23;20332;-84
2021/11/19 10:41:57;;;;;;;3.58;2.10;;;;;;;10.48;100.00;102401.13;6128122;23;20068;-85
2021/11/19 10:44:41;;;;;;;3.95;1.80;;;;;;;10.48;100.00;102405.66;6133467;23;20091;-84
2021/11/19 10:47:33;;;;;;;3.58;1.70;;;;;;;10.48;100.00;102417.25;6157521;23;20367;-85
2021/11/19 10:49:59;;;;;;;3.03;1.40;;;;;;;10.48;100.00;102411.03;6184643;23;20024;-84
2021/11/19 10:52:43;;;;;;;2.67;1.35;;;;;;;10.45;100.00;102401.41;6184166;23;20413;-85
2021/11/19 10:55:27;;;;;;;3.28;1.77;;;;;;;10.43;100.00;102408.75;6158176;23;20049;-85
2021/11/19 10:58:19;;;;;;;3.97;1.83;;;;;;;10.40;100.00;102405.47;6132988;23;20337;-84
2021/11/19 11:01:04;;;;;;;3.97;1.67;;;;;;;10.41;100.00;102404.50;6133133;23;20025;-84
2021/11/19 11:03:34;;;;;;;4.53;1.70;;;;;;;10.41;100.00;102401.78;6133304;23;20009;-85
2021/11/19 11:06:15;;;;;;;2.97;1.65;;;;;;;10.48;100.00;102401.13;6133306;23;20444;-85
2021/11/19 11:08:43;;;;;;;2.72;1.73;;;;;;;10.47;100.00;102399.41;6133050;23;20015;-87
2021/11/19 11:11:30;;;;;;;2.78;1.33;;;;;;;10.51;100.00;102406.22;6133437;23;20037;-84
2021/11/19 11:13:56;;;;;;;3.75;1.65;;;;;;;10.63;100.00;102406.13;6109256;23;20005;-84
2021/11/19 11:16:24;;;;;;;3.67;1.17;;;;;;;10.63;100.00;102408.81;6158424;23;20012;-85
2021/11/19 11:19:10;;;;;;;3.20;1.60;;;;;;;10.66;100.00;102404.00;6157549;23;20012;-84
2021/11/19 11:21:40;;;;;;;3.00;1.48;;;;;;;10.59;100.00;102383.19;6157484;23;20460;-84
2021/11/19 11:24:21;;;;;;;4.20;1.90;;;;;;;10.73;100.00;102410.56;6108877;23;20028;-86
2021/11/19 11:26:53;;;;;;;2.95;1.55;;;;;;;10.73;100.00;102404.34;6133052;23;20012;-84
2021/11/19 11:29:28;;;;;;;3.42;1.38;;;;;;;10.68;100.00;102401.19;6108573;23;20039;-86
2021/11/19 11:32:11;;;;;;;2.35;1.50;;;;;;;10.65;100.00;102401.47;6108237;23;20031;-84
2021/11/19 11:34:56;;;;;;;3.45;1.98;;;;;;;10.71;100.00;102396.38;6184053;23;20009;-84
2021/11/19 11:37:53;;;;;;;3.58;1.95;;;;;;;10.75;100.00;102394.28;6157738;23;20005;-85